Time;durP1;ratioP1;P1;durP2;ratioP2;P2;SDS_P1;SDS_P2;PMS_P1;PMS_P2;Temp;Humidity;BMP_temperature;BMP_pressure;BME280_temperature;BME280_humidity;BME280_pressure;Samples;Min_cycle;Max_cycle;Signal;HPM_P1;HPM_P2
2021/10/12 00:00:20;;;;;;;59.75;34.60;;;;;;;;;;5071222;28;20036;-62
2021/10/12 00:02:45;;;;;;;60.22;33.58;;;;;;;;;;5069478;28;20029;-64
2021/10/12 00:05:11;;;;;;;63.38;34.42;;;;;;;;;;5069893;28;20388;-63
2021/10/12 00:07:36;;;;;;;58.67;34.05;;;;;;;;;;5069857;28;20477;-63
2021/10/12 00:10:02;;;;;;;57.45;35.17;;;;;;;;;;5069388;28;20020;-63
2021/10/12 00:12:28;;;;;;;63.20;35.22;;;;;;;;;;5069730;28;20116;-62
2021/10/12 00:14:53;;;;;;;53.15;33.92;;;;;;;;;;5069314;28;20021;-64
2021/10/12 00:17:18;;;;;;;51.03;31.40;;;;;;;;;;5069014;28;20091;-64
2021/10/12 00:19:43;;;;;;;60.22;35.22;;;;;;;;;;5069310;28;20013;-63
2021/10/12 00:22:09;;;;;;;57.50;33.80;;;;;;;;;;5069121;28;20139;-63
2021/10/12 00:24:34;;;;;;;59.47;33.85;;;;;;;;;;5069397;28;20404;-64
2021/10/12 00:26:59;;;;;;;54.15;32.38;;;;;;;;;;5069247;28;20017;-64
2021/10/12 00:29:25;;;;;;;51.53;31.77;;;;;;;;;;5069221;28;20016;-64
2021/10/12 00:31:50;;;;;;;55.42;33.58;;;;;;;;;;5068962;28;20036;-63
2021/10/12 00:34:18;;;;;;;57.28;32.72;;;;;;;;;;5062317;28;20028;-66
2021/10/12 00:36:43;;;;;;;53.65;30.77;;;;;;;;;;5055641;28;20537;-63
2021/10/12 00:39:09;;;;;;;54.83;30.83;;;;;;;;;;5055741;28;20096;-63
2021/10/12 00:41:34;;;;;;;47.80;30.00;;;;;;;;;;5055624;28;20354;-63
2021/10/12 00:43:59;;;;;;;56.92;31.85;;;;;;;;;;5056238;28;20021;-64
2021/10/12 00:46:25;;;;;;;53.20;33.28;;;;;;;;;;5055843;28;20052;-63
2021/10/12 00:48:50;;;;;;;55.53;32.85;;;;;;;;;;5055389;28;20048;-63
2021/10/12 00:51:15;;;;;;;59.40;34.22;;;;;;;;;;5055671;28;20059;-64
2021/10/12 00:53:40;;;;;;;61.13;33.75;;;;;;;;;;5055372;28;20017;-63
2021/10/12 00:56:08;;;;;;;61.10;34.83;;;;;;;;;;5055590;28;20016;-63
2021/10/12 00:58:33;;;;;;;51.13;31.83;;;;;;;;;;5055449;28;20056;-63
2021/10/12 01:00:58;;;;;;;50.72;32.08;;;;;;;;;;5055247;28;20067;-64
2021/10/12 01:03:23;;;;;;;50.88;30.90;;;;;;;;;;5055350;28;20032;-64
2021/10/12 01:05:49;;;;;;;52.90;31.33;;;;;;;;;;5055134;28;20025;-63
2021/10/12 01:08:14;;;;;;;47.50;28.65;;;;;;;;;;5055314;28;20013;-63
2021/10/12 01:10:39;;;;;;;47.63;28.05;;;;;;;;;;5055163;28;20021;-63
2021/10/12 01:13:06;;;;;;;56.47;32.90;;;;;;;;;;5055134;28;20139;-63
2021/10/12 01:15:32;;;;;;;58.58;33.50;;;;;;;;;;5055245;28;20024;-63
2021/10/12 01:17:57;;;;;;;58.90;32.35;;;;;;;;;;5054583;28;20021;-63
2021/10/12 01:20:24;;;;;;;59.90;34.55;;;;;;;;;;5055164;28;20017;-63
2021/10/12 01:22:50;;;;;;;59.78;34.08;;;;;;;;;;5054751;28;20044;-64
2021/10/12 01:25:16;;;;;;;64.72;33.25;;;;;;;;;;5055047;28;20009;-64
2021/10/12 01:27:42;;;;;;;62.42;35.88;;;;;;;;;;5054959;28;20084;-64
2021/10/12 01:30:08;;;;;;;54.10;32.63;;;;;;;;;;5054660;28;20017;-64
2021/10/12 01:32:37;;;;;;;67.35;36.33;;;;;;;;;;5054914;28;20515;-64
2021/10/12 01:35:03;;;;;;;60.65;32.70;;;;;;;;;;5054986;28;20029;-64
2021/10/12 01:37:28;;;;;;;63.22;33.95;;;;;;;;;;5054653;28;20028;-64
2021/10/12 01:39:54;;;;;;;55.78;31.92;;;;;;;;;;5054584;28;20028;-63
2021/10/12 01:42:19;;;;;;;52.63;31.58;;;;;;;;;;5054619;28;20028;-63
2021/10/12 01:44:44;;;;;;;53.60;32.17;;;;;;;;;;5054378;28;20025;-63
2021/10/12 01:47:10;;;;;;;56.22;31.67;;;;;;;;;;5053607;28;20422;-64
2021/10/12 01:49:35;;;;;;;54.45;30.52;;;;;;;;;;5054458;28;20025;-63
2021/10/12 01:52:00;;;;;;;59.60;32.83;;;;;;;;;;5054420;28;20055;-64
2021/10/12 01:54:26;;;;;;;55.55;32.70;;;;;;;;;;5054477;28;20389;-64
2021/10/12 01:56:51;;;;;;;55.78;31.00;;;;;;;;;;5054142;28;20472;-63
2021/10/12 01:59:17;;;;;;;66.30;32.60;;;;;;;;;;5054802;28;20104;-62
2021/10/12 02:01:44;;;;;;;55.67;31.00;;;;;;;;;;5054305;28;20021;-63
2021/10/12 02:04:09;;;;;;;57.78;32.15;;;;;;;;;;5054086;28;20380;-63
2021/10/12 02:06:34;;;;;;;58.03;32.50;;;;;;;;;;5055694;28;20024;-63
2021/10/12 02:09:00;;;;;;;66.28;34.90;;;;;;;;;;5054397;28;20036;-63
2021/10/12 02:11:25;;;;;;;59.65;33.85;;;;;;;;;;5053827;28;20111;-63
2021/10/12 02:13:50;;;;;;;56.20;33.58;;;;;;;;;;5053709;28;20023;-63
2021/10/12 02:16:15;;;;;;;57.75;34.25;;;;;;;;;;5054089;28;20013;-63
2021/10/12 02:18:41;;;;;;;53.88;32.33;;;;;;;;;;5053649;28;20017;-64
2021/10/12 02:21:06;;;;;;;54.20;31.23;;;;;;;;;;5053801;28;20021;-63
2021/10/12 02:23:31;;;;;;;57.95;32.83;;;;;;;;;;5053583;28;20455;-63
2021/10/12 02:25:56;;;;;;;64.88;32.55;;;;;;;;;;5053634;28;20025;-63
2021/10/12 02:28:22;;;;;;;53.97;30.98;;;;;;;;;;5053891;28;20079;-63
2021/10/12 02:30:47;;;;;;;58.60;32.42;;;;;;;;;;5053722;28;20016;-64
2021/10/12 02:33:13;;;;;;;53.22;31.55;;;;;;;;;;5053677;28;20016;-63
2021/10/12 02:35:38;;;;;;;52.80;32.05;;;;;;;;;;5053544;28;20054;-64
2021/10/12 02:38:03;;;;;;;55.55;30.75;;;;;;;;;;5053529;28;20017;-63
2021/10/12 02:40:28;;;;;;;56.00;33.05;;;;;;;;;;5053457;28;20095;-63
2021/10/12 02:42:54;;;;;;;61.15;34.88;;;;;;;;;;5053509;28;20040;-62
2021/10/12 02:45:19;;;;;;;60.03;33.72;;;;;;;;;;5053700;28;20097;-63
2021/10/12 02:47:44;;;;;;;53.33;32.22;;;;;;;;;;5053117;28;20024;-63
2021/10/12 02:50:10;;;;;;;56.45;33.47;;;;;;;;;;5053287;28;20024;-64
2021/10/12 02:52:35;;;;;;;53.72;31.92;;;;;;;;;;5053747;28;20024;-63
2021/10/12 02:55:01;;;;;;;53.33;32.17;;;;;;;;;;5053132;28;20412;-64
2021/10/12 02:57:26;;;;;;;58.88;32.38;;;;;;;;;;5052932;28;20028;-64
2021/10/12 02:59:51;;;;;;;53.50;30.70;;;;;;;;;;5053187;28;20029;-62
2021/10/12 03:02:16;;;;;;;60.45;31.92;;;;;;;;;;5053153;28;20032;-62
2021/10/12 03:04:42;;;;;;;50.13;31.23;;;;;;;;;;5053428;28;20029;-64
2021/10/12 03:07:07;;;;;;;55.50;32.65;;;;;;;;;;5053054;28;20037;-63
2021/10/12 03:09:32;;;;;;;57.28;31.77;;;;;;;;;;5053102;28;20013;-63
2021/10/12 03:11:58;;;;;;;58.53;32.10;;;;;;;;;;5053346;28;20022;-63
2021/10/12 03:14:23;;;;;;;54.97;30.45;;;;;;;;;;5052997;28;20024;-63
2021/10/12 03:16:48;;;;;;;55.08;31.33;;;;;;;;;;5052663;28;20024;-63
2021/10/12 03:19:16;;;;;;;59.88;31.35;;;;;;;;;;5053308;28;20414;-63
2021/10/12 03:24:36;;;;;;;54.33;31.45;;;;;;;;;;5047919;28;20139;-63
2021/10/12 03:27:01;;;;;;;53.05;30.67;;;;;;;;;;5052947;28;20108;-63
2021/10/12 03:29:26;;;;;;;55.20;32.63;;;;;;;;;;5052927;28;20092;-63
2021/10/12 03:31:51;;;;;;;54.33;31.35;;;;;;;;;;5052999;28;20052;-62
2021/10/12 03:34:17;;;;;;;58.28;32.58;;;;;;;;;;5053270;28;20021;-64
2021/10/12 03:36:43;;;;;;;57.45;33.60;;;;;;;;;;5052724;28;20024;-63
2021/10/12 03:39:08;;;;;;;63.53;34.78;;;;;;;;;;5052792;28;20010;-63
2021/10/12 03:41:33;;;;;;;61.90;34.33;;;;;;;;;;5052981;28;20364;-63
2021/10/12 03:43:58;;;;;;;58.10;33.83;;;;;;;;;;5052501;28;20103;-63
2021/10/12 03:46:24;;;;;;;62.63;35.67;;;;;;;;;;5052571;28;20009;-63
2021/10/12 03:48:50;;;;;;;62.33;34.55;;;;;;;;;;5052439;28;20487;-63
2021/10/12 03:51:15;;;;;;;54.95;32.42;;;;;;;;;;5052639;28;20025;-64
2021/10/12 03:53:40;;;;;;;71.43;34.65;;;;;;;;;;5052611;28;20025;-63
2021/10/12 03:56:06;;;;;;;61.45;34.00;;;;;;;;;;5052577;28;20044;-63
2021/10/12 03:58:32;;;;;;;57.75;33.10;;;;;;;;;;5052714;28;20060;-64
2021/10/12 04:00:57;;;;;;;51.63;31.48;;;;;;;;;;5052651;28;20426;-63
2021/10/12 04:03:22;;;;;;;55.85;33.63;;;;;;;;;;5053025;28;20025;-63
2021/10/12 04:05:48;;;;;;;61.95;34.55;;;;;;;;;;5052330;28;20020;-63
2021/10/12 04:08:13;;;;;;;57.65;32.70;;;;;;;;;;5052415;28;20028;-63
2021/10/12 04:10:39;;;;;;;57.47;32.22;;;;;;;;;;5056223;28;20021;-64
2021/10/12 04:13:05;;;;;;;57.80;33.88;;;;;;;;;;5056239;28;20881;-64
2021/10/12 04:15:30;;;;;;;63.97;34.25;;;;;;;;;;5058483;28;20029;-63
2021/10/12 04:17:56;;;;;;;56.97;33.25;;;;;;;;;;5055922;28;20437;-63
2021/10/12 04:20:24;;;;;;;59.05;33.83;;;;;;;;;;5056158;28;20013;-62
2021/10/12 04:22:50;;;;;;;51.70;29.15;;;;;;;;;;5055705;28;20123;-63
2021/10/12 04:25:15;;;;;;;53.53;30.60;;;;;;;;;;5056198;28;20075;-63
2021/10/12 04:27:40;;;;;;;53.42;31.65;;;;;;;;;;5056165;28;20377;-63
2021/10/12 04:30:06;;;;;;;53.53;31.20;;;;;;;;;;5055965;28;20040;-63
2021/10/12 04:32:31;;;;;;;58.38;34.65;;;;;;;;;;5056228;28;20017;-63
2021/10/12 04:34:56;;;;;;;56.38;32.00;;;;;;;;;;5055848;28;20024;-64
2021/10/12 04:37:22;;;;;;;49.88;30.40;;;;;;;;;;5055790;28;20033;-64
2021/10/12 04:39:47;;;;;;;50.92;29.58;;;;;;;;;;5055739;28;20025;-63
2021/10/12 04:42:12;;;;;;;55.33;29.38;;;;;;;;;;5055655;28;20381;-64
2021/10/12 04:44:38;;;;;;;53.33;30.70;;;;;;;;;;5055745;28;20032;-63
2021/10/12 04:47:03;;;;;;;53.80;31.02;;;;;;;;;;5055365;28;20020;-63
2021/10/12 04:49:28;;;;;;;56.20;30.45;;;;;;;;;;5055656;28;20032;-63
2021/10/12 04:51:53;;;;;;;53.22;31.40;;;;;;;;;;5055452;28;20017;-62
2021/10/12 04:54:19;;;;;;;47.08;28.58;;;;;;;;;;5055545;28;20059;-63
2021/10/12 04:56:44;;;;;;;65.15;31.23;;;;;;;;;;5055401;28;20044;-63
2021/10/12 04:59:09;;;;;;;48.30;29.83;;;;;;;;;;5055618;28;20031;-63
2021/10/12 05:01:35;;;;;;;52.40;30.98;;;;;;;;;;5055330;28;20461;-64
2021/10/12 05:04:00;;;;;;;47.40;29.00;;;;;;;;;;5055125;28;20025;-63
2021/10/12 05:06:25;;;;;;;53.58;31.17;;;;;;;;;;5055378;28;20048;-62
2021/10/12 05:08:51;;;;;;;47.75;28.38;;;;;;;;;;5055529;28;20370;-63
2021/10/12 05:11:16;;;;;;;51.35;29.83;;;;;;;;;;5055453;28;20020;-63
2021/10/12 05:13:41;;;;;;;48.67;27.80;;;;;;;;;;5055256;28;20017;-63
2021/10/12 05:16:11;;;;;;;54.65;29.10;;;;;;;;;;5054991;28;20465;-64
2021/10/12 05:18:38;;;;;;;50.47;28.50;;;;;;;;;;5055006;28;20017;-63
2021/10/12 05:21:03;;;;;;;47.90;26.85;;;;;;;;;;5055272;28;20040;-63
2021/10/12 05:23:29;;;;;;;55.47;29.75;;;;;;;;;;5054309;28;20425;-64
2021/10/12 05:25:54;;;;;;;57.40;30.15;;;;;;;;;;5054778;28;20025;-64
2021/10/12 05:28:20;;;;;;;55.88;30.42;;;;;;;;;;5055169;28;20023;-63
2021/10/12 05:30:46;;;;;;;46.78;29.23;;;;;;;;;;5054851;28;20115;-63
2021/10/12 05:33:12;;;;;;;54.38;31.55;;;;;;;;;;5054937;28;20017;-63
2021/10/12 05:35:37;;;;;;;56.42;32.13;;;;;;;;;;5054706;28;20013;-64
2021/10/12 05:38:03;;;;;;;60.88;32.92;;;;;;;;;;5054430;28;20028;-63
2021/10/12 05:40:28;;;;;;;58.83;33.25;;;;;;;;;;5054623;28;20104;-62
2021/10/12 05:42:53;;;;;;;67.75;34.30;;;;;;;;;;5054759;28;20025;-63
2021/10/12 05:45:19;;;;;;;54.88;32.08;;;;;;;;;;5054590;28;20025;-64
2021/10/12 05:47:44;;;;;;;57.53;30.92;;;;;;;;;;5054266;28;20078;-63
2021/10/12 05:50:09;;;;;;;56.65;31.65;;;;;;;;;;5054305;28;20017;-62
2021/10/12 05:52:37;;;;;;;55.63;33.00;;;;;;;;;;5053521;28;20074;-64
2021/10/12 05:55:15;;;;;;;52.25;31.50;;;;;;;;;;5053789;28;20100;-67
2021/10/12 05:58:27;;;;;;;53.97;31.33;;;;;;;;;;5052623;28;20021;-65
2021/10/12 06:00:26;;;;;;;48.97;28.42;;;;;;;;;;5031197;28;20041;-64
2021/10/12 06:02:51;;;;;;;60.65;30.55;;;;;;;;;;5044548;28;20374;-63
2021/10/12 06:05:17;;;;;;;55.10;29.85;;;;;;;;;;5043182;28;20025;-67
2021/10/12 06:07:42;;;;;;;45.53;27.80;;;;;;;;;;5035866;28;20021;-65
2021/10/12 06:10:07;;;;;;;50.00;28.08;;;;;;;;;;5037036;28;20100;-66
2021/10/12 06:12:33;;;;;;;45.13;27.67;;;;;;;;;;5037324;28;20408;-66
2021/10/12 06:14:58;;;;;;;41.67;26.25;;;;;;;;;;5034935;28;20477;-64
2021/10/12 06:17:23;;;;;;;40.28;24.95;;;;;;;;;;5037276;28;20035;-65
2021/10/12 06:19:48;;;;;;;40.45;23.95;;;;;;;;;;5043549;28;20017;-64
2021/10/12 06:22:14;;;;;;;37.35;22.77;;;;;;;;;;5046625;28;20053;-63
2021/10/12 06:24:39;;;;;;;41.60;23.27;;;;;;;;;;5039070;28;20531;-65
2021/10/12 06:27:04;;;;;;;37.38;22.50;;;;;;;;;;5032094;28;20021;-63
2021/10/12 06:29:29;;;;;;;38.03;20.85;;;;;;;;;;5036923;28;20414;-64
2021/10/12 06:31:55;;;;;;;38.55;21.38;;;;;;;;;;5047348;28;20060;-64
2021/10/12 06:34:20;;;;;;;32.65;21.33;;;;;;;;;;5045942;28;20481;-63
2021/10/12 06:36:45;;;;;;;35.47;21.02;;;;;;;;;;5039884;28;20100;-64
2021/10/12 06:39:11;;;;;;;39.85;22.15;;;;;;;;;;5033115;28;20041;-64
2021/10/12 06:41:36;;;;;;;37.45;21.27;;;;;;;;;;5047558;28;20028;-66
2021/10/12 06:44:01;;;;;;;34.05;21.05;;;;;;;;;;5046207;28;20029;-65
2021/10/12 06:46:26;;;;;;;35.70;21.17;;;;;;;;;;5053119;28;20493;-66
2021/10/12 06:48:52;;;;;;;35.97;20.63;;;;;;;;;;5033499;28;20060;-66
2021/10/12 06:51:17;;;;;;;29.80;18.17;;;;;;;;;;5036485;28;20065;-66
2021/10/12 06:53:46;;;;;;;32.38;20.10;;;;;;;;;;5040920;28;20516;-66
2021/10/12 06:56:12;;;;;;;34.47;19.42;;;;;;;;;;5035480;28;20496;-70
2021/10/12 06:58:37;;;;;;;34.10;18.92;;;;;;;;;;5040796;28;20100;-68
2021/10/12 07:01:03;;;;;;;29.17;18.15;;;;;;;;;;5040243;28;20056;-68
2021/10/12 07:03:28;;;;;;;32.47;19.08;;;;;;;;;;5040714;28;20032;-67
2021/10/12 07:05:53;;;;;;;34.33;18.90;;;;;;;;;;5035217;28;20014;-67
2021/10/12 07:08:18;;;;;;;26.77;17.88;;;;;;;;;;5036367;28;20029;-67
2021/10/12 07:10:44;;;;;;;33.22;19.13;;;;;;;;;;5037006;28;20481;-67
2021/10/12 07:13:11;;;;;;;26.70;16.63;;;;;;;;;;5042801;28;20028;-67
2021/10/12 07:15:37;;;;;;;33.78;17.42;;;;;;;;;;5039339;28;20275;-67
2021/10/12 07:18:02;;;;;;;29.38;17.67;;;;;;;;;;5045600;28;20437;-69
2021/10/12 07:20:27;;;;;;;24.20;15.60;;;;;;;;;;5035560;28;20037;-68
2021/10/12 07:22:52;;;;;;;24.40;15.60;;;;;;;;;;5035738;28;20294;-69
2021/10/12 07:25:18;;;;;;;29.73;17.08;;;;;;;;;;5036433;28;20804;-67
2021/10/12 07:27:43;;;;;;;31.45;18.17;;;;;;;;;;5035723;28;20032;-68
2021/10/12 07:30:08;;;;;;;30.08;16.27;;;;;;;;;;5033574;28;20020;-65
2021/10/12 07:32:35;;;;;;;28.90;16.98;;;;;;;;;;5032580;28;20022;-65
2021/10/12 07:35:00;;;;;;;28.38;15.90;;;;;;;;;;5034702;28;20026;-65
2021/10/12 07:37:26;;;;;;;26.25;16.45;;;;;;;;;;5036949;28;20026;-67
2021/10/12 07:39:51;;;;;;;26.00;15.05;;;;;;;;;;5037614;28;20033;-67
2021/10/12 07:42:16;;;;;;;29.25;16.83;;;;;;;;;;5039402;28;20059;-67
2021/10/12 07:44:42;;;;;;;28.27;15.95;;;;;;;;;;5052717;28;20469;-67
2021/10/12 07:47:08;;;;;;;25.40;15.93;;;;;;;;;;5051754;28;20009;-67
2021/10/12 07:49:34;;;;;;;43.40;20.75;;;;;;;;;;5055036;28;20032;-68
2021/10/12 07:52:05;;;;;;;29.95;16.70;;;;;;;;;;5054706;28;20021;-69
2021/10/12 07:54:39;;;;;;;35.15;17.63;;;;;;;;;;5055278;28;20491;-67
2021/10/12 07:57:04;;;;;;;37.88;18.42;;;;;;;;;;5050232;28;20017;-68
2021/10/12 07:59:29;;;;;;;34.50;18.20;;;;;;;;;;5040767;28;20019;-67
2021/10/12 08:01:56;;;;;;;36.42;18.73;;;;;;;;;;5040729;28;20830;-67
2021/10/12 08:04:21;;;;;;;29.27;17.75;;;;;;;;;;5043723;28;20041;-67
2021/10/12 08:06:46;;;;;;;27.73;15.75;;;;;;;;;;5050584;28;20013;-67
2021/10/12 08:09:30;;;;;;;28.67;17.33;;;;;;;;;;5049649;28;20028;-67
2021/10/12 08:11:57;;;;;;;27.77;16.83;;;;;;;;;;5020575;28;20278;-66
2021/10/12 08:14:23;;;;;;;27.38;15.93;;;;;;;;;;5024877;28;20081;-67
2021/10/12 08:16:49;;;;;;;31.15;18.08;;;;;;;;;;5036145;28;20021;-68
2021/10/12 08:19:14;;;;;;;26.88;17.42;;;;;;;;;;5028412;28;20021;-68
2021/10/12 08:21:39;;;;;;;25.60;17.08;;;;;;;;;;5029385;28;20100;-67
2021/10/12 08:24:08;;;;;;;27.20;15.10;;;;;;;;;;5036227;28;20095;-67
2021/10/12 08:26:33;;;;;;;25.57;16.37;;;;;;;;;;5026653;28;20025;-65
2021/10/12 08:28:58;;;;;;;30.15;17.05;;;;;;;;;;5017395;28;20033;-64
2021/10/12 08:31:24;;;;;;;27.08;15.93;;;;;;;;;;5027539;28;20018;-65
2021/10/12 08:33:50;;;;;;;26.25;15.05;;;;;;;;;;5024497;28;20073;-66
2021/10/12 08:36:15;;;;;;;26.02;16.30;;;;;;;;;;5018492;28;20045;-64
2021/10/12 08:38:41;;;;;;;31.15;16.88;;;;;;;;;;5024412;28;20026;-65
2021/10/12 08:41:07;;;;;;;27.75;16.50;;;;;;;;;;5032532;28;20524;-65
2021/10/12 08:43:37;;;;;;;27.73;16.25;;;;;;;;;;5024631;28;20069;-64
2021/10/12 08:46:02;;;;;;;26.35;16.30;;;;;;;;;;5018943;28;20048;-66
2021/10/12 08:48:31;;;;;;;27.20;15.80;;;;;;;;;;5020124;28;20112;-66
2021/10/12 08:50:57;;;;;;;28.17;15.85;;;;;;;;;;5025857;28;20010;-66
2021/10/12 08:53:23;;;;;;;23.20;15.50;;;;;;;;;;5026134;28;20502;-66
2021/10/12 08:55:48;;;;;;;25.95;14.55;;;;;;;;;;5034228;28;20533;-67
2021/10/12 08:58:13;;;;;;;27.50;15.52;;;;;;;;;;5021824;28;20462;-66
2021/10/12 09:00:39;;;;;;;24.53;15.90;;;;;;;;;;5024742;28;20071;-67
2021/10/12 09:05:59;;;;;;;30.25;16.10;;;;;;;;;;5014499;28;20022;-67
2021/10/12 09:08:27;;;;;;;27.00;16.15;;;;;;;;;;5019940;28;20513;-67
2021/10/12 09:10:52;;;;;;;25.40;14.63;;;;;;;;;;5018036;28;20021;-68
2021/10/12 09:13:18;;;;;;;23.27;14.15;;;;;;;;;;5025115;28;20097;-66
2021/10/12 09:16:03;;;;;;;25.08;13.05;;;;;;;;;;5027687;28;20462;-65
2021/10/12 09:18:46;;;;;;;23.88;14.60;;;;;;;;;;5014095;28;20014;-68
2021/10/12 09:21:15;;;;;;;19.55;12.32;;;;;;;;;;5014334;28;20348;-68
2021/10/12 09:23:41;;;;;;;16.85;9.70;;;;;;;;;;5014503;28;20050;-68
2021/10/12 09:26:18;;;;;;;17.73;11.02;;;;;;;;;;5014685;28;20032;-67
2021/10/12 09:28:43;;;;;;;21.90;10.27;;;;;;;;;;5015923;28;20088;-67
2021/10/12 09:31:08;;;;;;;13.90;9.98;;;;;;;;;;5014366;28;20474;-67
2021/10/12 09:33:44;;;;;;;16.43;10.73;;;;;;;;;;5019997;28;20120;-68
2021/10/12 09:36:25;;;;;;;13.98;9.15;;;;;;;;;;5034136;28;20246;-68
2021/10/12 09:38:50;;;;;;;17.25;10.32;;;;;;;;;;5034214;28;20028;-68
2021/10/12 09:41:16;;;;;;;17.13;11.17;;;;;;;;;;5034127;28;20029;-68
2021/10/12 09:43:41;;;;;;;18.08;10.35;;;;;;;;;;5034105;28;20302;-67
2021/10/12 09:46:20;;;;;;;14.00;10.20;;;;;;;;;;5029746;28;20059;-67
2021/10/12 09:48:45;;;;;;;17.63;10.57;;;;;;;;;;5025574;28;20049;-68
2021/10/12 09:51:12;;;;;;;18.43;10.97;;;;;;;;;;5034134;28;20476;-68
2021/10/12 09:53:38;;;;;;;16.77;10.93;;;;;;;;;;5033834;28;20247;-68
2021/10/12 09:56:04;;;;;;;20.13;12.20;;;;;;;;;;5033944;28;20025;-68
2021/10/12 09:58:32;;;;;;;18.48;10.60;;;;;;;;;;5024682;28;20017;-68
2021/10/12 10:01:01;;;;;;;16.92;10.45;;;;;;;;;;5039547;28;20020;-67
2021/10/12 10:03:30;;;;;;;13.25;8.93;;;;;;;;;;5056708;28;20025;-68
2021/10/12 10:06:11;;;;;;;18.52;10.32;;;;;;;;;;5054653;28;20039;-66
2021/10/12 10:08:49;;;;;;;12.60;9.50;;;;;;;;;;5022321;28;20552;-65
2021/10/12 10:11:14;;;;;;;16.77;10.55;;;;;;;;;;5014419;28;20371;-66
2021/10/12 10:13:40;;;;;;;16.05;10.52;;;;;;;;;;5017445;28;20072;-65
2021/10/12 10:16:08;;;;;;;14.60;9.88;;;;;;;;;;5014765;28;20344;-65
2021/10/12 10:18:34;;;;;;;19.10;8.98;;;;;;;;;;5014129;28;20026;-66
2021/10/12 10:21:00;;;;;;;17.60;10.05;;;;;;;;;;5013693;28;20395;-64
2021/10/12 10:23:44;;;;;;;16.77;10.25;;;;;;;;;;5026615;28;20034;-66
2021/10/12 10:26:23;;;;;;;12.63;8.57;;;;;;;;;;5024861;28;20029;-66
2021/10/12 10:28:48;;;;;;;14.93;8.20;;;;;;;;;;5014542;28;20018;-64
2021/10/12 10:31:13;;;;;;;18.93;9.63;;;;;;;;;;5025814;28;20485;-67
2021/10/12 10:33:39;;;;;;;20.37;9.60;;;;;;;;;;5027186;28;20258;-67
2021/10/12 10:36:08;;;;;;;13.82;9.88;;;;;;;;;;5032107;28;20822;-66
2021/10/12 10:38:33;;;;;;;14.73;8.88;;;;;;;;;;5016214;28;20047;-66
2021/10/12 10:41:04;;;;;;;14.75;9.55;;;;;;;;;;5017600;28;20025;-66
2021/10/12 10:43:45;;;;;;;13.90;9.07;;;;;;;;;;5030218;28;20025;-68
2021/10/12 10:46:30;;;;;;;13.88;8.20;;;;;;;;;;5013316;28;20386;-66
2021/10/12 10:49:02;;;;;;;13.70;8.25;;;;;;;;;;5015233;28;20496;-65
2021/10/12 10:51:28;;;;;;;14.13;8.10;;;;;;;;;;5017338;28;20049;-67
2021/10/12 10:53:53;;;;;;;16.60;8.30;;;;;;;;;;5015142;28;20076;-67
2021/10/12 10:56:21;;;;;;;15.23;8.53;;;;;;;;;;5022463;28;20264;-69
2021/10/12 10:58:46;;;;;;;15.93;9.90;;;;;;;;;;5011605;28;20605;-67
2021/10/12 11:01:31;;;;;;;16.90;9.00;;;;;;;;;;5042497;28;20081;-67
2021/10/12 11:03:57;;;;;;;11.32;7.75;;;;;;;;;;5023320;28;20287;-66
2021/10/12 11:06:22;;;;;;;16.13;9.20;;;;;;;;;;5020561;28;20500;-68
2021/10/12 11:09:02;;;;;;;13.73;8.20;;;;;;;;;;5031481;28;20445;-68
2021/10/12 11:11:31;;;;;;;15.38;8.98;;;;;;;;;;5013205;28;20632;-66
2021/10/12 11:13:57;;;;;;;12.93;7.82;;;;;;;;;;5021161;28;20056;-67
2021/10/12 11:16:23;;;;;;;13.48;8.13;;;;;;;;;;5022837;28;20041;-66
2021/10/12 11:18:58;;;;;;;12.10;7.78;;;;;;;;;;5016377;28;20052;-68
2021/10/12 11:21:24;;;;;;;16.42;8.20;;;;;;;;;;5023518;28;20022;-66
2021/10/12 11:23:50;;;;;;;16.08;7.97;;;;;;;;;;5021914;28;20091;-67
2021/10/12 11:26:17;;;;;;;15.82;7.95;;;;;;;;;;5022909;28;20026;-67
2021/10/12 11:28:47;;;;;;;13.73;7.63;;;;;;;;;;5013357;28;20129;-69
2021/10/12 11:31:13;;;;;;;11.63;7.47;;;;;;;;;;5017235;28;20017;-66
2021/10/12 11:33:40;;;;;;;11.13;6.63;;;;;;;;;;5032742;28;20021;-67
2021/10/12 11:36:06;;;;;;;15.60;6.85;;;;;;;;;;5018319;28;20085;-68
2021/10/12 11:38:40;;;;;;;11.75;6.47;;;;;;;;;;5020702;28;20405;-67
2021/10/12 11:41:16;;;;;;;10.30;5.50;;;;;;;;;;5013361;28;20025;-68
2021/10/12 11:43:42;;;;;;;9.10;5.03;;;;;;;;;;5022070;28;20473;-67
2021/10/12 11:46:08;;;;;;;8.52;4.13;;;;;;;;;;5029517;28;20100;-68
2021/10/12 11:48:37;;;;;;;9.45;4.00;;;;;;;;;;5025584;28;20045;-66
2021/10/12 11:51:12;;;;;;;6.80;4.30;;;;;;;;;;5024257;28;20047;-68
2021/10/12 11:53:40;;;;;;;9.85;3.80;;;;;;;;;;5025647;28;20062;-68
2021/10/12 11:56:06;;;;;;;6.15;3.97;;;;;;;;;;5022491;28;20470;-67
2021/10/12 11:58:31;;;;;;;7.65;4.15;;;;;;;;;;5026405;28;20541;-67
2021/10/12 12:00:56;;;;;;;7.03;4.70;;;;;;;;;;5028520;28;20061;-68
2021/10/12 12:03:22;;;;;;;6.37;4.50;;;;;;;;;;5017127;28;20279;-66
2021/10/12 12:05:51;;;;;;;7.55;4.18;;;;;;;;;;5028540;28;20442;-67
2021/10/12 12:08:16;;;;;;;8.80;4.43;;;;;;;;;;5015933;28;20053;-66
2021/10/12 12:10:41;;;;;;;8.90;4.70;;;;;;;;;;5028493;28;20482;-67
2021/10/12 12:13:07;;;;;;;6.70;4.60;;;;;;;;;;5018558;28;20762;-67
2021/10/12 12:15:32;;;;;;;9.23;4.03;;;;;;;;;;5016624;28;20029;-67
2021/10/12 12:18:12;;;;;;;7.50;4.40;;;;;;;;;;5031389;28;20727;-68
2021/10/12 12:20:47;;;;;;;9.55;4.40;;;;;;;;;;5032166;28;20021;-67
2021/10/12 12:23:27;;;;;;;8.82;4.20;;;;;;;;;;5031727;28;20041;-67
2021/10/12 12:25:53;;;;;;;;;;;;;;;;;;5032406;28;20021;-65
2021/10/12 12:28:21;;;;;;;10.13;4.18;;;;;;;;;;5031676;28;19912;-67
2021/10/12 12:30:46;;;;;;;7.82;4.35;;;;;;;;;;5034127;28;20036;-66
2021/10/12 12:33:11;;;;;;;8.77;4.65;;;;;;;;;;5035496;28;20025;-66
2021/10/12 12:35:38;;;;;;;10.73;4.85;;;;;;;;;;5035593;28;20351;-66
2021/10/12 12:38:04;;;;;;;9.82;4.70;;;;;;;;;;5034964;28;20067;-66
2021/10/12 12:40:30;;;;;;;11.02;5.10;;;;;;;;;;5035677;28;20096;-66
2021/10/12 12:42:55;;;;;;;6.88;3.97;;;;;;;;;;5035060;28;20109;-67
2021/10/12 12:45:22;;;;;;;13.25;6.22;;;;;;;;;;5035629;28;20100;-69
2021/10/12 12:47:56;;;;;;;12.27;7.13;;;;;;;;;;5029597;28;20434;-67
2021/10/12 12:50:26;;;;;;;10.25;5.30;;;;;;;;;;5015688;28;20048;-70
2021/10/12 12:52:52;;;;;;;7.53;4.78;;;;;;;;;;5017520;28;20041;-69
2021/10/12 12:55:29;;;;;;;7.57;5.00;;;;;;;;;;5028985;28;20056;-70
2021/10/12 12:57:55;;;;;;;10.02;3.97;;;;;;;;;;5032243;28;20045;-66
2021/10/12 13:00:20;;;;;;;7.05;4.15;;;;;;;;;;5042493;28;20063;-63
2021/10/12 13:02:55;;;;;;;10.82;4.70;;;;;;;;;;5038870;28;20033;-63
2021/10/12 13:05:22;;;;;;;8.15;4.50;;;;;;;;;;5034924;28;20025;-63
2021/10/12 13:07:47;;;;;;;10.82;4.25;;;;;;;;;;5033642;28;20033;-62
2021/10/12 13:10:12;;;;;;;6.45;3.85;;;;;;;;;;5033523;28;20033;-62
2021/10/12 13:12:37;;;;;;;10.77;4.85;;;;;;;;;;5033955;28;20017;-64
2021/10/12 13:15:03;;;;;;;8.00;4.13;;;;;;;;;;5030730;28;20464;-62
2021/10/12 13:17:28;;;;;;;8.95;4.65;;;;;;;;;;5015299;28;20484;-64
2021/10/12 13:19:53;;;;;;;7.95;4.85;;;;;;;;;;5014778;28;20465;-63
2021/10/12 13:22:19;;;;;;;8.57;4.60;;;;;;;;;;5014161;28;20058;-63
2021/10/12 13:24:45;;;;;;;10.75;4.40;;;;;;;;;;5019786;28;20021;-64
2021/10/12 13:27:11;;;;;;;8.55;4.20;;;;;;;;;;5030441;28;20029;-64
2021/10/12 13:29:36;;;;;;;9.95;5.28;;;;;;;;;;5023607;28;20018;-64
2021/10/12 13:32:02;;;;;;;9.88;4.70;;;;;;;;;;5015548;28;20046;-63
2021/10/12 13:34:27;;;;;;;10.88;4.70;;;;;;;;;;5027639;28;20458;-65
2021/10/12 13:36:52;;;;;;;6.80;4.38;;;;;;;;;;5017938;28;20030;-65
2021/10/12 13:39:18;;;;;;;8.77;4.68;;;;;;;;;;5019181;28;20025;-62
2021/10/12 13:41:43;;;;;;;10.53;4.87;;;;;;;;;;5019495;28;20386;-63
2021/10/12 13:44:08;;;;;;;9.27;4.97;;;;;;;;;;5022581;28;20283;-62
2021/10/12 13:46:33;;;;;;;11.10;5.30;;;;;;;;;;5026014;28;20109;-62
2021/10/12 13:48:59;;;;;;;8.63;4.60;;;;;;;;;;5021755;28;20259;-64
2021/10/12 13:51:24;;;;;;;10.97;6.00;;;;;;;;;;5019477;28;20057;-63
2021/10/12 13:53:49;;;;;;;7.05;4.97;;;;;;;;;;5017946;28;20615;-63
2021/10/12 13:56:15;;;;;;;9.32;4.60;;;;;;;;;;5016974;28;20458;-64
2021/10/12 13:58:40;;;;;;;8.18;5.40;;;;;;;;;;5019189;28;20021;-64
2021/10/12 14:01:06;;;;;;;10.53;5.20;;;;;;;;;;5026500;28;20037;-64
2021/10/12 14:03:33;;;;;;;9.05;4.95;;;;;;;;;;5021030;28;20282;-62
2021/10/12 14:05:58;;;;;;;8.43;5.55;;;;;;;;;;5020151;28;20458;-67
2021/10/12 14:08:23;;;;;;;9.23;5.17;;;;;;;;;;5021358;28;20048;-65
2021/10/12 14:10:48;;;;;;;9.63;5.20;;;;;;;;;;5016553;28;20794;-66
2021/10/12 14:13:13;;;;;;;8.48;5.53;;;;;;;;;;5024492;28;20320;-64
2021/10/12 14:15:39;;;;;;;9.55;5.75;;;;;;;;;;5020064;28;20021;-65
2021/10/12 14:18:04;;;;;;;9.73;5.30;;;;;;;;;;5018049;28;20018;-64
2021/10/12 14:20:29;;;;;;;11.45;5.60;;;;;;;;;;5027759;28;20277;-63
2021/10/12 14:22:55;;;;;;;7.70;4.88;;;;;;;;;;5028705;28;20052;-64
2021/10/12 14:25:23;;;;;;;9.93;5.95;;;;;;;;;;5026729;28;20185;-64